Terminal Aerodrome Forecast
Issued by NWS Mt. Holly, NJ

Home | Current Version | Previous Version | Text Only | Print | Product List | Glossary On
Versions: 1 2 3 4 5 6 7 8 9 10 11 12 13 14 15 16 17 18 19 20 21 22 23 24 25 26 27
000
FTUS41 KPHI 260500
TAFABE
TAF
KABE 260526Z 2606/2706 05008KT 5SM -SN OVC040
     FM261000 06010G18KT 3/4SM -SN OVC009
     FM261500 05012G22KT 2SM -SN OVC009
     FM262100 04014G24KT 1SM -SN OVC006
     FM270300 02014KT 2SM -SN BR OVC015=

USA.gov is the U.S. government's official web portal to all federal, state and local government web resources and services.